sensor_id;sensor_type;location;lat;lon;timestamp;P1;durP1;ratioP1;P2;durP2;ratioP2
58089;SDS011;45149;50.976;6.120;2022-08-21T00:01:21;15.25;;;11.23;;
58089;SDS011;45149;50.976;6.120;2022-08-21T00:03:50;12.80;;;11.40;;
58089;SDS011;45149;50.976;6.120;2022-08-21T00:06:15;13.38;;;10.90;;
58089;SDS011;45149;50.976;6.120;2022-08-21T00:08:41;12.70;;;10.18;;
58089;SDS011;45149;50.976;6.120;2022-08-21T00:11:07;15.88;;;11.07;;
58089;SDS011;45149;50.976;6.120;2022-08-21T00:13:33;12.73;;;10.80;;
58089;SDS011;45149;50.976;6.120;2022-08-21T00:15:59;12.77;;;11.38;;
58089;SDS011;45149;50.976;6.120;2022-08-21T00:18:24;12.32;;;11.00;;
58089;SDS011;45149;50.976;6.120;2022-08-21T00:20:50;11.90;;;10.70;;
58089;SDS011;45149;50.976;6.120;2022-08-21T00:23:16;13.20;;;11.23;;
58089;SDS011;45149;50.976;6.120;2022-08-21T00:25:42;14.27;;;11.10;;
58089;SDS011;45149;50.976;6.120;2022-08-21T00:28:08;12.88;;;11.57;;
58089;SDS011;45149;50.976;6.120;2022-08-21T00:30:34;14.25;;;11.77;;
58089;SDS011;45149;50.976;6.120;2022-08-21T00:33:00;13.00;;;11.55;;
58089;SDS011;45149;50.976;6.120;2022-08-21T00:35:31;13.30;;;11.90;;
58089;SDS011;45149;50.976;6.120;2022-08-21T00:37:59;12.88;;;11.13;;
58089;SDS011;45149;50.976;6.120;2022-08-21T00:40:30;13.95;;;12.52;;
58089;SDS011;45149;50.976;6.120;2022-08-21T00:43:03;15.52;;;12.63;;
58089;SDS011;45149;50.976;6.120;2022-08-21T00:45:30;13.77;;;12.38;;
58089;SDS011;45149;50.976;6.120;2022-08-21T00:47:56;15.60;;;12.20;;
58089;SDS011;45149;50.976;6.120;2022-08-21T00:50:22;13.90;;;12.27;;
58089;SDS011;45149;50.976;6.120;2022-08-21T00:52:54;15.52;;;12.00;;
58089;SDS011;45149;50.976;6.120;2022-08-21T00:55:20;15.10;;;11.45;;
58089;SDS011;45149;50.976;6.120;2022-08-21T00:57:50;15.35;;;11.95;;
58089;SDS011;45149;50.976;6.120;2022-08-21T01:00:28;13.07;;;11.55;;
58089;SDS011;45149;50.976;6.120;2022-08-21T01:02:57;17.35;;;11.82;;
58089;SDS011;45149;50.976;6.120;2022-08-21T01:05:24;14.40;;;12.90;;
58089;SDS011;45149;50.976;6.120;2022-08-21T01:07:49;13.73;;;12.40;;
58089;SDS011;45149;50.976;6.120;2022-08-21T01:10:15;13.25;;;11.75;;
58089;SDS011;45149;50.976;6.120;2022-08-21T01:12:42;13.40;;;12.02;;
58089;SDS011;45149;50.976;6.120;2022-08-21T01:15:08;14.32;;;10.98;;
58089;SDS011;45149;50.976;6.120;2022-08-21T01:17:35;13.27;;;11.73;;
58089;SDS011;45149;50.976;6.120;2022-08-21T01:20:03;12.25;;;11.00;;
58089;SDS011;45149;50.976;6.120;2022-08-21T01:22:30;12.32;;;10.88;;
58089;SDS011;45149;50.976;6.120;2022-08-21T01:24:56;15.07;;;10.63;;
58089;SDS011;45149;50.976;6.120;2022-08-21T01:27:21;11.70;;;10.18;;
58089;SDS011;45149;50.976;6.120;2022-08-21T01:32:44;11.55;;;9.93;;
58089;SDS011;45149;50.976;6.120;2022-08-21T01:35:12;12.80;;;9.90;;
58089;SDS011;45149;50.976;6.120;2022-08-21T01:37:39;14.35;;;9.43;;
58089;SDS011;45149;50.976;6.120;2022-08-21T01:40:05;12.60;;;9.25;;
58089;SDS011;45149;50.976;6.120;2022-08-21T01:42:31;11.32;;;9.20;;
58089;SDS011;45149;50.976;6.120;2022-08-21T01:44:57;13.13;;;8.88;;
58089;SDS011;45149;50.976;6.120;2022-08-21T01:47:23;12.18;;;9.10;;
58089;SDS011;45149;50.976;6.120;2022-08-21T01:49:48;10.93;;;8.48;;
58089;SDS011;45149;50.976;6.120;2022-08-21T01:52:14;11.45;;;8.52;;
58089;SDS011;45149;50.976;6.120;2022-08-21T01:54:40;11.15;;;8.30;;
58089;SDS011;45149;50.976;6.120;2022-08-21T01:57:06;11.02;;;8.45;;
58089;SDS011;45149;50.976;6.120;2022-08-21T01:59:32;9.15;;;8.23;;
58089;SDS011;45149;50.976;6.120;2022-08-21T02:01:58;11.15;;;8.30;;
58089;SDS011;45149;50.976;6.120;2022-08-21T02:04:23;12.20;;;8.65;;
58089;SDS011;45149;50.976;6.120;2022-08-21T02:06:49;10.93;;;7.72;;
58089;SDS011;45149;50.976;6.120;2022-08-21T02:09:14;13.25;;;8.55;;
58089;SDS011;45149;50.976;6.120;2022-08-21T02:11:40;10.13;;;8.55;;
58089;SDS011;45149;50.976;6.120;2022-08-21T02:14:07;10.00;;;8.50;;
58089;SDS011;45149;50.976;6.120;2022-08-21T02:16:34;12.48;;;8.43;;
58089;SDS011;45149;50.976;6.120;2022-08-21T02:18:59;11.93;;;8.73;;
58089;SDS011;45149;50.976;6.120;2022-08-21T02:21:25;11.18;;;8.85;;
58089;SDS011;45149;50.976;6.120;2022-08-21T02:23:50;12.70;;;9.30;;
58089;SDS011;45149;50.976;6.120;2022-08-21T02:26:15;10.77;;;9.02;;
58089;SDS011;45149;50.976;6.120;2022-08-21T02:28:41;10.02;;;8.25;;
58089;SDS011;45149;50.976;6.120;2022-08-21T02:31:07;11.20;;;7.95;;
58089;SDS011;45149;50.976;6.120;2022-08-21T02:33:33;9.07;;;8.13;;
58089;SDS011;45149;50.976;6.120;2022-08-21T02:35:58;12.00;;;8.23;;
58089;SDS011;45149;50.976;6.120;2022-08-21T02:38:26;9.88;;;8.30;;
58089;SDS011;45149;50.976;6.120;2022-08-21T02:40:53;12.05;;;8.00;;
58089;SDS011;45149;50.976;6.120;2022-08-21T02:43:20;10.45;;;7.68;;
58089;SDS011;45149;50.976;6.120;2022-08-21T02:45:47;12.88;;;7.97;;
58089;SDS011;45149;50.976;6.120;2022-08-21T02:48:18;10.40;;;7.75;;
58089;SDS011;45149;50.976;6.120;2022-08-21T02:50:47;10.20;;;8.02;;
58089;SDS011;45149;50.976;6.120;2022-08-21T02:53:14;8.82;;;7.80;;
58089;SDS011;45149;50.976;6.120;2022-08-21T02:55:42;9.93;;;7.80;;
58089;SDS011;45149;50.976;6.120;2022-08-21T02:58:12;11.25;;;8.10;;
58089;SDS011;45149;50.976;6.120;2022-08-21T03:00:38;10.48;;;7.45;;
58089;SDS011;45149;50.976;6.120;2022-08-21T03:03:04;11.00;;;7.43;;
58089;SDS011;45149;50.976;6.120;2022-08-21T03:05:30;14.38;;;7.40;;
58089;SDS011;45149;50.976;6.120;2022-08-21T03:08:01;11.52;;;8.00;;
58089;SDS011;45149;50.976;6.120;2022-08-21T03:10:27;15.48;;;7.68;;
58089;SDS011;45149;50.976;6.120;2022-08-21T03:12:53;10.90;;;7.28;;
58089;SDS011;45149;50.976;6.120;2022-08-21T03:15:21;11.68;;;7.35;;
58089;SDS011;45149;50.976;6.120;2022-08-21T03:17:48;10.00;;;7.22;;
58089;SDS011;45149;50.976;6.120;2022-08-21T03:20:16;13.35;;;7.63;;
58089;SDS011;45149;50.976;6.120;2022-08-21T03:22:44;12.23;;;7.20;;
58089;SDS011;45149;50.976;6.120;2022-08-21T03:25:11;11.25;;;7.05;;
58089;SDS011;45149;50.976;6.120;2022-08-21T03:27:37;12.48;;;7.28;;
58089;SDS011;45149;50.976;6.120;2022-08-21T03:30:03;9.23;;;7.13;;
58089;SDS011;45149;50.976;6.120;2022-08-21T03:32:30;9.68;;;6.53;;
58089;SDS011;45149;50.976;6.120;2022-08-21T03:34:56;10.80;;;6.63;;
58089;SDS011;45149;50.976;6.120;2022-08-21T03:37:22;12.50;;;7.25;;
58089;SDS011;45149;50.976;6.120;2022-08-21T03:39:49;12.38;;;7.22;;
58089;SDS011;45149;50.976;6.120;2022-08-21T03:42:15;9.93;;;6.80;;
58089;SDS011;45149;50.976;6.120;2022-08-21T03:44:41;10.25;;;6.85;;
58089;SDS011;45149;50.976;6.120;2022-08-21T03:47:06;16.10;;;7.47;;
58089;SDS011;45149;50.976;6.120;2022-08-21T03:49:31;9.20;;;7.20;;
58089;SDS011;45149;50.976;6.120;2022-08-21T03:51:58;10.32;;;7.15;;
58089;SDS011;45149;50.976;6.120;2022-08-21T03:54:23;10.80;;;6.55;;
58089;SDS011;45149;50.976;6.120;2022-08-21T03:56:49;10.20;;;6.88;;
58089;SDS011;45149;50.976;6.120;2022-08-21T03:59:15;14.02;;;6.70;;
58089;SDS011;45149;50.976;6.120;2022-08-21T04:01:50;9.35;;;6.78;;
58089;SDS011;45149;50.976;6.120;2022-08-21T04:04:23;9.85;;;6.40;;
58089;SDS011;45149;50.976;6.120;2022-08-21T04:06:49;9.38;;;6.68;;
58089;SDS011;45149;50.976;6.120;2022-08-21T04:09:15;9.70;;;6.25;;
58089;SDS011;45149;50.976;6.120;2022-08-21T04:11:41;10.38;;;6.10;;
58089;SDS011;45149;50.976;6.120;2022-08-21T04:14:07;10.00;;;6.40;;
58089;SDS011;45149;50.976;6.120;2022-08-21T04:16:32;9.88;;;6.60;;
58089;SDS011;45149;50.976;6.120;2022-08-21T04:18:57;9.30;;;6.35;;
58089;SDS011;45149;50.976;6.120;2022-08-21T04:21:23;10.10;;;6.65;;
58089;SDS011;45149;50.976;6.120;2022-08-21T04:23:48;9.88;;;5.57;;
58089;SDS011;45149;50.976;6.120;2022-08-21T04:26:13;10.73;;;6.75;;
58089;SDS011;45149;50.976;6.120;2022-08-21T04:28:39;11.93;;;6.32;;
58089;SDS011;45149;50.976;6.120;2022-08-21T04:31:04;10.90;;;6.20;;
58089;SDS011;45149;50.976;6.120;2022-08-21T04:33:30;10.18;;;6.13;;
58089;SDS011;45149;50.976;6.120;2022-08-21T04:35:55;12.60;;;6.50;;
58089;SDS011;45149;50.976;6.120;2022-08-21T04:38:20;12.20;;;6.97;;
58089;SDS011;45149;50.976;6.120;2022-08-21T04:40:46;9.40;;;6.72;;
58089;SDS011;45149;50.976;6.120;2022-08-21T04:43:13;10.98;;;6.40;;
58089;SDS011;45149;50.976;6.120;2022-08-21T04:45:41;13.60;;;6.43;;
58089;SDS011;45149;50.976;6.120;2022-08-21T04:48:09;9.93;;;6.70;;
58089;SDS011;45149;50.976;6.120;2022-08-21T04:50:38;13.02;;;6.93;;
58089;SDS011;45149;50.976;6.120;2022-08-21T04:53:09;11.13;;;6.32;;
58089;SDS011;45149;50.976;6.120;2022-08-21T04:55:38;11.38;;;6.47;;
58089;SDS011;45149;50.976;6.120;2022-08-21T04:58:06;10.45;;;6.07;;
58089;SDS011;45149;50.976;6.120;2022-08-21T05:00:36;10.55;;;6.35;;
58089;SDS011;45149;50.976;6.120;2022-08-21T05:03:01;11.88;;;6.65;;
58089;SDS011;45149;50.976;6.120;2022-08-21T05:05:30;12.32;;;6.13;;
58089;SDS011;45149;50.976;6.120;2022-08-21T05:07:56;10.10;;;6.38;;
58089;SDS011;45149;50.976;6.120;2022-08-21T05:10:23;9.57;;;6.13;;
58089;SDS011;45149;50.976;6.120;2022-08-21T05:12:48;11.70;;;6.53;;
58089;SDS011;45149;50.976;6.120;2022-08-21T05:15:14;11.27;;;5.95;;
58089;SDS011;45149;50.976;6.120;2022-08-21T05:17:40;11.88;;;6.57;;
58089;SDS011;45149;50.976;6.120;2022-08-21T05:20:06;8.95;;;6.10;;
58089;SDS011;45149;50.976;6.120;2022-08-21T05:22:33;10.50;;;6.40;;
58089;SDS011;45149;50.976;6.120;2022-08-21T05:24:59;11.82;;;5.60;;
58089;SDS011;45149;50.976;6.120;2022-08-21T05:27:24;10.98;;;6.05;;
58089;SDS011;45149;50.976;6.120;2022-08-21T05:29:49;9.75;;;5.85;;
58089;SDS011;45149;50.976;6.120;2022-08-21T05:32:15;9.73;;;5.78;;
58089;SDS011;45149;50.976;6.120;2022-08-21T05:34:40;10.85;;;6.10;;
58089;SDS011;45149;50.976;6.120;2022-08-21T05:37:06;9.05;;;5.65;;
58089;SDS011;45149;50.976;6.120;2022-08-21T05:39:31;11.77;;;5.32;;
58089;SDS011;45149;50.976;6.120;2022-08-21T05:41:56;12.88;;;6.15;;
58089;SDS011;45149;50.976;6.120;2022-08-21T05:44:22;12.50;;;6.75;;
58089;SDS011;45149;50.976;6.120;2022-08-21T05:46:47;10.32;;;5.50;;
58089;SDS011;45149;50.976;6.120;2022-08-21T05:49:13;9.35;;;5.60;;
58089;SDS011;45149;50.976;6.120;2022-08-21T05:51:41;10.98;;;5.40;;
58089;SDS011;45149;50.976;6.120;2022-08-21T05:54:07;7.75;;;5.05;;
58089;SDS011;45149;50.976;6.120;2022-08-21T05:56:32;12.10;;;5.32;;
58089;SDS011;45149;50.976;6.120;2022-08-21T05:58:58;9.85;;;5.13;;
58089;SDS011;45149;50.976;6.120;2022-08-21T06:01:24;9.65;;;5.35;;
58089;SDS011;45149;50.976;6.120;2022-08-21T06:03:49;9.07;;;5.45;;
58089;SDS011;45149;50.976;6.120;2022-08-21T06:06:15;13.32;;;5.80;;
58089;SDS011;45149;50.976;6.120;2022-08-21T06:08:40;10.43;;;5.60;;
58089;SDS011;45149;50.976;6.120;2022-08-21T06:11:06;12.15;;;5.72;;
58089;SDS011;45149;50.976;6.120;2022-08-21T06:13:32;9.80;;;5.57;;
58089;SDS011;45149;50.976;6.120;2022-08-21T06:16:02;9.38;;;5.40;;
58089;SDS011;45149;50.976;6.120;2022-08-21T06:18:33;8.98;;;5.13;;
58089;SDS011;45149;50.976;6.120;2022-08-21T06:20:59;9.95;;;4.90;;
58089;SDS011;45149;50.976;6.120;2022-08-21T06:23:25;8.82;;;4.72;;
58089;SDS011;45149;50.976;6.120;2022-08-21T06:25:50;9.57;;;4.90;;
58089;SDS011;45149;50.976;6.120;2022-08-21T06:28:15;9.88;;;4.63;;
58089;SDS011;45149;50.976;6.120;2022-08-21T06:30:41;8.25;;;4.68;;
58089;SDS011;45149;50.976;6.120;2022-08-21T06:33:06;11.02;;;5.00;;
58089;SDS011;45149;50.976;6.120;2022-08-21T06:35:32;11.40;;;5.20;;
58089;SDS011;45149;50.976;6.120;2022-08-21T06:37:58;9.55;;;4.63;;
58089;SDS011;45149;50.976;6.120;2022-08-21T06:40:25;10.80;;;4.88;;
58089;SDS011;45149;50.976;6.120;2022-08-21T06:42:51;11.68;;;4.82;;
58089;SDS011;45149;50.976;6.120;2022-08-21T06:45:17;9.02;;;4.65;;
58089;SDS011;45149;50.976;6.120;2022-08-21T06:47:42;8.45;;;4.40;;
58089;SDS011;45149;50.976;6.120;2022-08-21T06:50:07;8.50;;;4.60;;
58089;SDS011;45149;50.976;6.120;2022-08-21T06:52:34;7.82;;;3.65;;
58089;SDS011;45149;50.976;6.120;2022-08-21T06:55:04;12.25;;;3.80;;
58089;SDS011;45149;50.976;6.120;2022-08-21T06:57:31;9.07;;;3.50;;
58089;SDS011;45149;50.976;6.120;2022-08-21T06:59:56;10.13;;;3.38;;
58089;SDS011;45149;50.976;6.120;2022-08-21T07:02:22;9.65;;;3.58;;
58089;SDS011;45149;50.976;6.120;2022-08-21T07:04:47;6.80;;;2.75;;
58089;SDS011;45149;50.976;6.120;2022-08-21T07:07:13;8.52;;;2.67;;
58089;SDS011;45149;50.976;6.120;2022-08-21T07:09:38;6.68;;;2.40;;
58089;SDS011;45149;50.976;6.120;2022-08-21T07:12:04;9.98;;;3.00;;
58089;SDS011;45149;50.976;6.120;2022-08-21T07:14:30;7.57;;;2.63;;
58089;SDS011;45149;50.976;6.120;2022-08-21T07:16:55;6.15;;;2.20;;
58089;SDS011;45149;50.976;6.120;2022-08-21T07:19:20;5.15;;;2.15;;
58089;SDS011;45149;50.976;6.120;2022-08-21T07:21:46;5.88;;;2.30;;
58089;SDS011;45149;50.976;6.120;2022-08-21T07:24:11;5.75;;;1.88;;
58089;SDS011;45149;50.976;6.120;2022-08-21T07:26:37;6.50;;;2.22;;
58089;SDS011;45149;50.976;6.120;2022-08-21T07:29:03;4.28;;;1.88;;
58089;SDS011;45149;50.976;6.120;2022-08-21T07:31:29;7.40;;;2.58;;
58089;SDS011;45149;50.976;6.120;2022-08-21T07:33:55;6.85;;;2.10;;
58089;SDS011;45149;50.976;6.120;2022-08-21T07:36:21;5.10;;;1.77;;
58089;SDS011;45149;50.976;6.120;2022-08-21T07:38:46;8.30;;;2.00;;
58089;SDS011;45149;50.976;6.120;2022-08-21T07:41:16;6.38;;;1.90;;
58089;SDS011;45149;50.976;6.120;2022-08-21T07:43:49;6.22;;;1.67;;
58089;SDS011;45149;50.976;6.120;2022-08-21T07:46:14;6.20;;;2.00;;
58089;SDS011;45149;50.976;6.120;2022-08-21T07:48:39;4.97;;;1.70;;
58089;SDS011;45149;50.976;6.120;2022-08-21T07:51:07;5.03;;;1.85;;
58089;SDS011;45149;50.976;6.120;2022-08-21T07:53:34;6.10;;;2.00;;
58089;SDS011;45149;50.976;6.120;2022-08-21T07:56:01;5.45;;;2.55;;
58089;SDS011;45149;50.976;6.120;2022-08-21T07:58:27;5.63;;;2.22;;
58089;SDS011;45149;50.976;6.120;2022-08-21T08:00:52;4.65;;;2.10;;
58089;SDS011;45149;50.976;6.120;2022-08-21T08:03:18;6.72;;;1.77;;
58089;SDS011;45149;50.976;6.120;2022-08-21T08:05:43;5.75;;;1.90;;
58089;SDS011;45149;50.976;6.120;2022-08-21T08:08:08;7.07;;;2.00;;
58089;SDS011;45149;50.976;6.120;2022-08-21T08:10:34;6.47;;;2.38;;
58089;SDS011;45149;50.976;6.120;2022-08-21T08:13:00;6.28;;;2.03;;
58089;SDS011;45149;50.976;6.120;2022-08-21T08:15:26;6.75;;;1.90;;
58089;SDS011;45149;50.976;6.120;2022-08-21T08:17:53;5.13;;;2.00;;
58089;SDS011;45149;50.976;6.120;2022-08-21T08:20:19;6.60;;;2.00;;
58089;SDS011;45149;50.976;6.120;2022-08-21T08:22:46;4.65;;;1.90;;
58089;SDS011;45149;50.976;6.120;2022-08-21T08:25:12;4.90;;;1.80;;
58089;SDS011;45149;50.976;6.120;2022-08-21T08:27:39;7.25;;;1.95;;
58089;SDS011;45149;50.976;6.120;2022-08-21T08:30:05;4.53;;;2.00;;
58089;SDS011;45149;50.976;6.120;2022-08-21T08:32:32;5.93;;;1.80;;
58089;SDS011;45149;50.976;6.120;2022-08-21T08:34:58;4.78;;;1.67;;
58089;SDS011;45149;50.976;6.120;2022-08-21T08:37:24;5.82;;;1.50;;
58089;SDS011;45149;50.976;6.120;2022-08-21T08:39:49;3.00;;;1.02;;
58089;SDS011;45149;50.976;6.120;2022-08-21T08:42:20;5.22;;;1.40;;
58089;SDS011;45149;50.976;6.120;2022-08-21T08:44:50;3.33;;;1.30;;
58089;SDS011;45149;50.976;6.120;2022-08-21T08:47:25;4.53;;;1.50;;
58089;SDS011;45149;50.976;6.120;2022-08-21T08:53:10;3.30;;;1.00;;
58089;SDS011;45149;50.976;6.120;2022-08-21T08:55:43;4.25;;;1.27;;
58089;SDS011;45149;50.976;6.120;2022-08-21T08:58:15;3.35;;;1.10;;
58089;SDS011;45149;50.976;6.120;2022-08-21T09:00:47;4.65;;;1.30;;
58089;SDS011;45149;50.976;6.120;2022-08-21T09:03:14;5.45;;;1.30;;
58089;SDS011;45149;50.976;6.120;2022-08-21T09:05:46;4.60;;;1.58;;
58089;SDS011;45149;50.976;6.120;2022-08-21T09:08:25;3.58;;;1.33;;
58089;SDS011;45149;50.976;6.120;2022-08-21T09:11:00;3.95;;;1.77;;
58089;SDS011;45149;50.976;6.120;2022-08-21T09:13:41;5.53;;;1.90;;
58089;SDS011;45149;50.976;6.120;2022-08-21T09:16:17;6.50;;;1.50;;
58089;SDS011;45149;50.976;6.120;2022-08-21T09:25:21;4.22;;;1.30;;
58089;SDS011;45149;50.976;6.120;2022-08-21T09:30:05;5.97;;;2.00;;
58089;SDS011;45149;50.976;6.120;2022-08-21T09:32:32;4.47;;;1.80;;
58089;SDS011;45149;50.976;6.120;2022-08-21T09:35:00;4.18;;;1.45;;
58089;SDS011;45149;50.976;6.120;2022-08-21T09:40:38;5.35;;;1.92;;
58089;SDS011;45149;50.976;6.120;2022-08-21T09:45:46;4.85;;;1.58;;
58089;SDS011;45149;50.976;6.120;2022-08-21T09:48:22;4.82;;;1.70;;
58089;SDS011;45149;50.976;6.120;2022-08-21T09:50:50;3.92;;;1.58;;
58089;SDS011;45149;50.976;6.120;2022-08-21T09:53:24;5.43;;;1.73;;
58089;SDS011;45149;50.976;6.120;2022-08-21T09:56:39;5.43;;;1.70;;
58089;SDS011;45149;50.976;6.120;2022-08-21T09:59:11;4.07;;;1.52;;
58089;SDS011;45149;50.976;6.120;2022-08-21T10:01:58;5.70;;;1.80;;
58089;SDS011;45149;50.976;6.120;2022-08-21T10:04:31;4.90;;;1.50;;
58089;SDS011;45149;50.976;6.120;2022-08-21T10:07:09;5.82;;;1.50;;
58089;SDS011;45149;50.976;6.120;2022-08-21T10:09:37;5.57;;;1.40;;
58089;SDS011;45149;50.976;6.120;2022-08-21T10:14:44;5.90;;;1.73;;
58089;SDS011;45149;50.976;6.120;2022-08-21T10:19:56;4.38;;;1.48;;
58089;SDS011;45149;50.976;6.120;2022-08-21T10:33:42;5.57;;;1.70;;
58089;SDS011;45149;50.976;6.120;2022-08-21T10:36:18;5.60;;;1.70;;
58089;SDS011;45149;50.976;6.120;2022-08-21T10:38:54;5.32;;;1.60;;
58089;SDS011;45149;50.976;6.120;2022-08-21T10:47:28;5.47;;;1.80;;
58089;SDS011;45149;50.976;6.120;2022-08-21T10:52:56;5.38;;;1.83;;
58089;SDS011;45149;50.976;6.120;2022-08-21T10:55:39;2.92;;;1.25;;
58089;SDS011;45149;50.976;6.120;2022-08-21T10:58:09;4.72;;;1.75;;
58089;SDS011;45149;50.976;6.120;2022-08-21T11:00:45;3.53;;;1.50;;
58089;SDS011;45149;50.976;6.120;2022-08-21T11:06:00;5.10;;;1.40;;
58089;SDS011;45149;50.976;6.120;2022-08-21T11:08:43;3.55;;;1.30;;
58089;SDS011;45149;50.976;6.120;2022-08-21T11:11:24;3.13;;;1.45;;
58089;SDS011;45149;50.976;6.120;2022-08-21T11:14:09;3.90;;;1.50;;
58089;SDS011;45149;50.976;6.120;2022-08-21T11:16:53;4.07;;;1.58;;
58089;SDS011;45149;50.976;6.120;2022-08-21T11:19:36;3.05;;;1.25;;
58089;SDS011;45149;50.976;6.120;2022-08-21T11:22:15;3.38;;;1.25;;
58089;SDS011;45149;50.976;6.120;2022-08-21T11:27:52;4.18;;;1.27;;
58089;SDS011;45149;50.976;6.120;2022-08-21T11:30:24;3.67;;;1.30;;
58089;SDS011;45149;50.976;6.120;2022-08-21T11:33:00;3.60;;;1.38;;
58089;SDS011;45149;50.976;6.120;2022-08-21T11:43:31;4.43;;;1.52;;
58089;SDS011;45149;50.976;6.120;2022-08-21T11:54:03;4.18;;;1.40;;
58089;SDS011;45149;50.976;6.120;2022-08-21T11:56:40;4.43;;;1.83;;
58089;SDS011;45149;50.976;6.120;2022-08-21T11:59:14;4.63;;;1.90;;
58089;SDS011;45149;50.976;6.120;2022-08-21T12:01:46;3.88;;;1.73;;
58089;SDS011;45149;50.976;6.120;2022-08-21T12:06:49;4.90;;;1.70;;
58089;SDS011;45149;50.976;6.120;2022-08-21T12:11:50;3.05;;;1.20;;
58089;SDS011;45149;50.976;6.120;2022-08-21T12:14:34;7.70;;;1.70;;
58089;SDS011;45149;50.976;6.120;2022-08-21T12:17:24;3.83;;;1.27;;
58089;SDS011;45149;50.976;6.120;2022-08-21T12:20:14;3.95;;;1.20;;
58089;SDS011;45149;50.976;6.120;2022-08-21T12:22:47;3.70;;;1.30;;
58089;SDS011;45149;50.976;6.120;2022-08-21T12:25:18;3.58;;;1.40;;
58089;SDS011;45149;50.976;6.120;2022-08-21T12:27:45;5.13;;;1.40;;
58089;SDS011;45149;50.976;6.120;2022-08-21T12:30:33;5.20;;;1.50;;
58089;SDS011;45149;50.976;6.120;2022-08-21T12:33:01;5.00;;;1.20;;
58089;SDS011;45149;50.976;6.120;2022-08-21T12:35:37;4.28;;;1.30;;
58089;SDS011;45149;50.976;6.120;2022-08-21T12:38:26;3.47;;;1.20;;
58089;SDS011;45149;50.976;6.120;2022-08-21T12:40:55;4.10;;;1.40;;
58089;SDS011;45149;50.976;6.120;2022-08-21T12:43:34;3.57;;;1.40;;
58089;SDS011;45149;50.976;6.120;2022-08-21T12:46:06;3.85;;;1.27;;
58089;SDS011;45149;50.976;6.120;2022-08-21T12:48:33;2.97;;;1.05;;
58089;SDS011;45149;50.976;6.120;2022-08-21T12:51:10;3.28;;;1.25;;
58089;SDS011;45149;50.976;6.120;2022-08-21T12:56:12;3.92;;;1.20;;
58089;SDS011;45149;50.976;6.120;2022-08-21T12:58:41;3.13;;;1.23;;
58089;SDS011;45149;50.976;6.120;2022-08-21T13:01:52;4.17;;;1.50;;
58089;SDS011;45149;50.976;6.120;2022-08-21T13:04:07;2.85;;;1.25;;
58089;SDS011;45149;50.976;6.120;2022-08-21T13:06:39;2.60;;;1.10;;
58089;SDS011;45149;50.976;6.120;2022-08-21T13:09:09;4.68;;;1.33;;
58089;SDS011;45149;50.976;6.120;2022-08-21T13:11:39;5.78;;;1.20;;
58089;SDS011;45149;50.976;6.120;2022-08-21T13:14:06;3.53;;;1.30;;
58089;SDS011;45149;50.976;6.120;2022-08-21T13:16:52;2.53;;;1.02;;
58089;SDS011;45149;50.976;6.120;2022-08-21T13:19:21;3.60;;;1.30;;
58089;SDS011;45149;50.976;6.120;2022-08-21T13:21:47;6.80;;;1.35;;
58089;SDS011;45149;50.976;6.120;2022-08-21T13:24:20;3.85;;;1.27;;
58089;SDS011;45149;50.976;6.120;2022-08-21T13:26:57;3.28;;;1.40;;
58089;SDS011;45149;50.976;6.120;2022-08-21T13:29:26;3.13;;;1.08;;
58089;SDS011;45149;50.976;6.120;2022-08-21T13:31:55;3.60;;;1.17;;
58089;SDS011;45149;50.976;6.120;2022-08-21T13:34:22;4.10;;;1.20;;
58089;SDS011;45149;50.976;6.120;2022-08-21T13:36:51;3.67;;;1.50;;
58089;SDS011;45149;50.976;6.120;2022-08-21T13:39:19;4.25;;;1.30;;
58089;SDS011;45149;50.976;6.120;2022-08-21T13:41:46;4.28;;;1.38;;
58089;SDS011;45149;50.976;6.120;2022-08-21T13:44:18;3.38;;;1.30;;
58089;SDS011;45149;50.976;6.120;2022-08-21T13:46:51;4.28;;;1.33;;
58089;SDS011;45149;50.976;6.120;2022-08-21T13:49:19;4.55;;;1.80;;
58089;SDS011;45149;50.976;6.120;2022-08-21T13:51:48;4.20;;;1.23;;
58089;SDS011;45149;50.976;6.120;2022-08-21T13:54:24;2.40;;;1.15;;
58089;SDS011;45149;50.976;6.120;2022-08-21T13:56:54;2.40;;;1.20;;
58089;SDS011;45149;50.976;6.120;2022-08-21T13:59:27;4.43;;;1.50;;
58089;SDS011;45149;50.976;6.120;2022-08-21T14:01:56;3.65;;;1.15;;
58089;SDS011;45149;50.976;6.120;2022-08-21T14:04:38;3.70;;;1.50;;
58089;SDS011;45149;50.976;6.120;2022-08-21T14:07:26;4.40;;;1.65;;
58089;SDS011;45149;50.976;6.120;2022-08-21T14:09:55;3.08;;;1.23;;
58089;SDS011;45149;50.976;6.120;2022-08-21T14:12:25;3.08;;;1.13;;
58089;SDS011;45149;50.976;6.120;2022-08-21T14:14:55;5.70;;;1.35;;
58089;SDS011;45149;50.976;6.120;2022-08-21T14:17:29;3.58;;;1.25;;
58089;SDS011;45149;50.976;6.120;2022-08-21T14:20:00;3.25;;;1.17;;
58089;SDS011;45149;50.976;6.120;2022-08-21T14:22:36;5.05;;;1.50;;
58089;SDS011;45149;50.976;6.120;2022-08-21T14:27:34;3.75;;;1.40;;
58089;SDS011;45149;50.976;6.120;2022-08-21T14:30:18;4.82;;;1.63;;
58089;SDS011;45149;50.976;6.120;2022-08-21T14:32:52;5.38;;;1.40;;
58089;SDS011;45149;50.976;6.120;2022-08-21T14:35:18;4.95;;;1.40;;
58089;SDS011;45149;50.976;6.120;2022-08-21T14:37:46;5.80;;;2.03;;
58089;SDS011;45149;50.976;6.120;2022-08-21T14:40:12;7.22;;;1.55;;
58089;SDS011;45149;50.976;6.120;2022-08-21T14:42:38;3.75;;;1.30;;
58089;SDS011;45149;50.976;6.120;2022-08-21T14:45:08;6.03;;;1.58;;
58089;SDS011;45149;50.976;6.120;2022-08-21T14:47:38;5.05;;;1.58;;
58089;SDS011;45149;50.976;6.120;2022-08-21T14:50:04;4.78;;;1.45;;
58089;SDS011;45149;50.976;6.120;2022-08-21T14:52:29;3.67;;;1.38;;
58089;SDS011;45149;50.976;6.120;2022-08-21T14:54:55;4.38;;;1.50;;
58089;SDS011;45149;50.976;6.120;2022-08-21T14:57:20;5.15;;;1.40;;
58089;SDS011;45149;50.976;6.120;2022-08-21T14:59:46;3.83;;;1.23;;
58089;SDS011;45149;50.976;6.120;2022-08-21T15:02:11;4.70;;;1.65;;
58089;SDS011;45149;50.976;6.120;2022-08-21T15:04:37;4.22;;;1.70;;
58089;SDS011;45149;50.976;6.120;2022-08-21T15:07:03;4.47;;;1.40;;
58089;SDS011;45149;50.976;6.120;2022-08-21T15:09:29;3.65;;;1.60;;
58089;SDS011;45149;50.976;6.120;2022-08-21T15:11:55;4.93;;;1.38;;
58089;SDS011;45149;50.976;6.120;2022-08-21T15:14:25;4.30;;;1.40;;
58089;SDS011;45149;50.976;6.120;2022-08-21T15:16:52;4.30;;;1.40;;
58089;SDS011;45149;50.976;6.120;2022-08-21T15:19:18;5.60;;;1.65;;
58089;SDS011;45149;50.976;6.120;2022-08-21T15:21:44;4.82;;;1.50;;
58089;SDS011;45149;50.976;6.120;2022-08-21T15:24:09;4.28;;;1.75;;
58089;SDS011;45149;50.976;6.120;2022-08-21T15:26:35;5.95;;;1.65;;
58089;SDS011;45149;50.976;6.120;2022-08-21T15:29:01;6.88;;;1.50;;
58089;SDS011;45149;50.976;6.120;2022-08-21T15:31:27;4.22;;;1.67;;
58089;SDS011;45149;50.976;6.120;2022-08-21T15:33:53;5.22;;;1.52;;
58089;SDS011;45149;50.976;6.120;2022-08-21T15:36:18;9.77;;;1.63;;
58089;SDS011;45149;50.976;6.120;2022-08-21T15:38:44;7.45;;;1.67;;
58089;SDS011;45149;50.976;6.120;2022-08-21T15:41:10;6.85;;;1.75;;
58089;SDS011;45149;50.976;6.120;2022-08-21T15:43:46;5.07;;;1.75;;
58089;SDS011;45149;50.976;6.120;2022-08-21T15:46:14;5.32;;;1.80;;
58089;SDS011;45149;50.976;6.120;2022-08-21T15:48:41;4.72;;;1.80;;
58089;SDS011;45149;50.976;6.120;2022-08-21T15:51:07;5.55;;;1.90;;
58089;SDS011;45149;50.976;6.120;2022-08-21T15:53:35;5.47;;;1.60;;
58089;SDS011;45149;50.976;6.120;2022-08-21T15:56:03;4.60;;;1.70;;
58089;SDS011;45149;50.976;6.120;2022-08-21T15:58:31;6.93;;;1.85;;
58089;SDS011;45149;50.976;6.120;2022-08-21T16:01:00;4.35;;;1.52;;
58089;SDS011;45149;50.976;6.120;2022-08-21T16:03:26;6.40;;;1.70;;
58089;SDS011;45149;50.976;6.120;2022-08-21T16:05:52;7.75;;;1.88;;
58089;SDS011;45149;50.976;6.120;2022-08-21T16:08:20;5.90;;;1.70;;